Terminal Aerodrome Forecast
Issued by NWS

Home | Current Version | Previous Version | Graphics & Text | Print | Product List | Glossary On
Versions: 1 2 3 4 5 6 7 8 9 10 11 12 13
000
FTUS45 KGGW 230531
TAFGDV
TAF
KGDV 230531Z 2306/2406 05005KT P6SM VCSH SCT100
      TEMPO 2312/2315 4SM SHRA OVC025
     FM231500 08008KT P6SM SHRA OVC090 PROB30 2315/2319 4SM TS
      OVC025CB
     FM231900 10012KT P6SM -SHRA BKN023 PROB30 2319/2321 4SM TS
      OVC015CB
     FM232100 13012KT P6SM -SHRA SCT045 PROB30 2321/2324 4SM TS
      BKN045CB BKN070
     FM240000 16009KT P6SM SCT100=

USA.gov is the U.S. government's official web portal to all federal, state and local government web resources and services.